sensor_id;sensor_type;location;lat;lon;timestamp;pressure;altitude;pressure_sealevel;temperature;humidity
45113;BME280;30873;53.908;27.576;2023-01-31T00:01:39;996.8;;;4.4;71.8
45113;BME280;30873;53.908;27.576;2023-01-31T00:06:39;996.9;;;4.4;71.7
45113;BME280;30873;53.908;27.576;2023-01-31T00:11:39;996.8;;;4.3;71.9
45113;BME280;30873;53.908;27.576;2023-01-31T00:16:53;996.8;;;4.3;72.1
45113;BME280;30873;53.908;27.576;2023-01-31T00:21:06;996.8;;;4.3;72.2
45113;BME280;30873;53.908;27.576;2023-01-31T00:26:53;996.9;;;4.3;72.3
45113;BME280;30873;53.908;27.576;2023-01-31T00:31:05;996.9;;;4.3;72.4
45113;BME280;30873;53.908;27.576;2023-01-31T00:36:39;996.9;;;4.3;72.3
45113;BME280;30873;53.908;27.576;2023-01-31T00:41:15;996.8;;;4.3;72.2
45113;BME280;30873;53.908;27.576;2023-01-31T00:46:51;996.8;;;4.3;72.5
45113;BME280;30873;53.908;27.576;2023-01-31T00:51:37;996.8;;;4.4;72.5
45113;BME280;30873;53.908;27.576;2023-01-31T00:56:51;996.8;;;4.4;72.2
45113;BME280;30873;53.908;27.576;2023-01-31T01:01:27;996.8;;;4.4;72.1
45113;BME280;30873;53.908;27.576;2023-01-31T01:06:53;996.8;;;4.4;72
45113;BME280;30873;53.908;27.576;2023-01-31T01:11:18;996.9;;;4.4;72
45113;BME280;30873;53.908;27.576;2023-01-31T01:16:18;996.9;;;4.5;71.9
45113;BME280;30873;53.908;27.576;2023-01-31T01:21:41;996.9;;;4.4;71.8
45113;BME280;30873;53.908;27.576;2023-01-31T01:26:16;996.9;;;4.5;71.7
45113;BME280;30873;53.908;27.576;2023-01-31T01:31:41;996.9;;;4.4;71.8
45113;BME280;30873;53.908;27.576;2023-01-31T01:36:51;996.9;;;4.4;72
45113;BME280;30873;53.908;27.576;2023-01-31T01:41:37;996.9;;;4.4;71.8
45113;BME280;30873;53.908;27.576;2023-01-31T01:46:25;996.9;;;4.4;71.9
45113;BME280;30873;53.908;27.576;2023-01-31T01:51:53;997;;;4.3;71.7
45113;BME280;30873;53.908;27.576;2023-01-31T01:56:16;996.9;;;4.3;71.9
45113;BME280;30873;53.908;27.576;2023-01-31T02:01:37;997;;;4.3;71.6
45113;BME280;30873;53.908;27.576;2023-01-31T02:06:17;997;;;4.3;71.6
45113;BME280;30873;53.908;27.576;2023-01-31T02:11:29;997;;;4.3;71.7
45113;BME280;30873;53.908;27.576;2023-01-31T02:16:29;997;;;4.3;71.4
45113;BME280;30873;53.908;27.576;2023-01-31T02:22:12;997;;;4.3;71.5
45113;BME280;30873;53.908;27.576;2023-01-31T02:26:46;997;;;4.4;71.3
45113;BME280;30873;53.908;27.576;2023-01-31T02:31:58;997.1;;;4.4;71.3
45113;BME280;30873;53.908;27.576;2023-01-31T02:36:17;997.1;;;4.4;71.3
45113;BME280;30873;53.908;27.576;2023-01-31T02:41:16;997.2;;;4.4;71.4
45113;BME280;30873;53.908;27.576;2023-01-31T02:46:54;997.2;;;4.5;71.3
45113;BME280;30873;53.908;27.576;2023-01-31T02:51:06;997.3;;;4.5;71.1
45113;BME280;30873;53.908;27.576;2023-01-31T02:56:06;997.3;;;4.5;71.3
45113;BME280;30873;53.908;27.576;2023-01-31T03:01:18;997.3;;;4.5;71.4
45113;BME280;30873;53.908;27.576;2023-01-31T03:06:50;997.3;;;4.5;71.5
45113;BME280;30873;53.908;27.576;2023-01-31T03:11:33;997.3;;;4.4;71.6
45113;BME280;30873;53.908;27.576;2023-01-31T03:16:06;997.3;;;4.4;72
45113;BME280;30873;53.908;27.576;2023-01-31T03:21:06;997.3;;;4.3;72.4
45113;BME280;30873;53.908;27.576;2023-01-31T03:26:55;997.4;;;4.3;73
45113;BME280;30873;53.908;27.576;2023-01-31T03:31:31;997.4;;;4.3;73.2
45113;BME280;30873;53.908;27.576;2023-01-31T03:36:56;997.4;;;4.3;73.3
45113;BME280;30873;53.908;27.576;2023-01-31T03:41:56;997.4;;;4.3;73.6
45113;BME280;30873;53.908;27.576;2023-01-31T03:46:28;997.5;;;4.2;73.9
45113;BME280;30873;53.908;27.576;2023-01-31T03:51:05;997.6;;;4.2;74.2
45113;BME280;30873;53.908;27.576;2023-01-31T03:56:53;997.7;;;4.1;74.6
45113;BME280;30873;53.908;27.576;2023-01-31T04:01:31;997.7;;;4.2;74.8
45113;BME280;30873;53.908;27.576;2023-01-31T04:06:33;997.7;;;4.2;74.5
45113;BME280;30873;53.908;27.576;2023-01-31T04:11:58;997.8;;;4.2;74.5
45113;BME280;30873;53.908;27.576;2023-01-31T04:16:43;997.8;;;4.3;74.4
45113;BME280;30873;53.908;27.576;2023-01-31T04:21:43;997.8;;;4.2;74.5
45113;BME280;30873;53.908;27.576;2023-01-31T04:26:31;997.8;;;4.2;74.5
45113;BME280;30873;53.908;27.576;2023-01-31T04:31:51;997.8;;;4.2;74.8
45113;BME280;30873;53.908;27.576;2023-01-31T04:36:05;997.8;;;4.3;75
45113;BME280;30873;53.908;27.576;2023-01-31T04:41:41;997.9;;;4.3;74.7
45113;BME280;30873;53.908;27.576;2023-01-31T04:46:15;997.9;;;4.4;74.7
45113;BME280;30873;53.908;27.576;2023-01-31T04:51:41;998;;;4.4;74.6
45113;BME280;30873;53.908;27.576;2023-01-31T04:56:17;998;;;4.5;74.6
45113;BME280;30873;53.908;27.576;2023-01-31T05:01:23;998.1;;;4.5;74.3
45113;BME280;30873;53.908;27.576;2023-01-31T05:06:41;998.1;;;4.4;74.5
45113;BME280;30873;53.908;27.576;2023-01-31T05:11:37;998.2;;;4.4;74.7
45113;BME280;30873;53.908;27.576;2023-01-31T05:16:53;998.2;;;4.4;74.5
45113;BME280;30873;53.908;27.576;2023-01-31T05:21:05;998.3;;;4.4;74.7
45113;BME280;30873;53.908;27.576;2023-01-31T05:26:41;998.4;;;4.3;74.9
45113;BME280;30873;53.908;27.576;2023-01-31T05:31:06;998.4;;;4.4;75.1
45113;BME280;30873;53.908;27.576;2023-01-31T05:36:53;998.4;;;4.5;74.9
45113;BME280;30873;53.908;27.576;2023-01-31T05:41:05;998.5;;;4.5;74.9
45113;BME280;30873;53.908;27.576;2023-01-31T05:46:41;998.6;;;4.5;74.9
45113;BME280;30873;53.908;27.576;2023-01-31T05:51:27;998.6;;;4.5;75
45113;BME280;30873;53.908;27.576;2023-01-31T05:56:41;998.7;;;4.6;74.9
45113;BME280;30873;53.908;27.576;2023-01-31T06:01:41;998.7;;;4.5;74.5
45113;BME280;30873;53.908;27.576;2023-01-31T06:06:55;998.8;;;4.6;74.8
45113;BME280;30873;53.908;27.576;2023-01-31T06:11:53;998.9;;;4.6;74.7
45113;BME280;30873;53.908;27.576;2023-01-31T06:16:17;999;;;4.6;74.6
45113;BME280;30873;53.908;27.576;2023-01-31T06:21:41;999.1;;;4.6;74.8
45113;BME280;30873;53.908;27.576;2023-01-31T06:26:39;999.2;;;4.6;74.9
45113;BME280;30873;53.908;27.576;2023-01-31T06:31:42;999.2;;;4.7;74.8
45113;BME280;30873;53.908;27.576;2023-01-31T06:36:17;999.3;;;4.8;74.7
45113;BME280;30873;53.908;27.576;2023-01-31T06:41:37;999.4;;;4.8;74.5
45113;BME280;30873;53.908;27.576;2023-01-31T06:46:27;999.4;;;4.9;74.3
45113;BME280;30873;53.908;27.576;2023-01-31T06:51:41;999.5;;;4.9;74.3
45113;BME280;30873;53.908;27.576;2023-01-31T06:56:39;999.5;;;5;73.9
45113;BME280;30873;53.908;27.576;2023-01-31T07:01:49;999.6;;;5;73.9
45113;BME280;30873;53.908;27.576;2023-01-31T07:06:53;999.6;;;5.1;73.8
45113;BME280;30873;53.908;27.576;2023-01-31T07:11:05;999.7;;;5.2;73.8
45113;BME280;30873;53.908;27.576;2023-01-31T07:16:51;999.8;;;5.3;73.4
45113;BME280;30873;53.908;27.576;2023-01-31T07:21:19;999.8;;;5.2;73.1
45113;BME280;30873;53.908;27.576;2023-01-31T07:26:17;999.8;;;5.2;73.5
45113;BME280;30873;53.908;27.576;2023-01-31T07:31:27;999.9;;;5.2;73.5
45113;BME280;30873;53.908;27.576;2023-01-31T07:36:51;1000;;;5.3;73.5
45113;BME280;30873;53.908;27.576;2023-01-31T07:41:05;1000.1;;;5.4;73.2
45113;BME280;30873;53.908;27.576;2023-01-31T07:46:47;1000.2;;;5.4;73.3
45113;BME280;30873;53.908;27.576;2023-01-31T07:51:13;1000.3;;;5.5;73.2
45113;BME280;30873;53.908;27.576;2023-01-31T07:56:51;1000.3;;;5.5;73
45113;BME280;30873;53.908;27.576;2023-01-31T08:01:26;1000.3;;;5.5;72.6
45113;BME280;30873;53.908;27.576;2023-01-31T08:06:06;1000.4;;;5.7;72.5
45113;BME280;30873;53.908;27.576;2023-01-31T08:11:29;1000.4;;;5.9;71.7
45113;BME280;30873;53.908;27.576;2023-01-31T08:16:19;1000.5;;;6.3;70.6
45113;BME280;30873;53.908;27.576;2023-01-31T08:21:41;1000.6;;;6.5;69.2
45113;BME280;30873;53.908;27.576;2023-01-31T08:26:51;1000.5;;;6.4;69
45113;BME280;30873;53.908;27.576;2023-01-31T08:31:16;1000.7;;;6.5;68.8
45113;BME280;30873;53.908;27.576;2023-01-31T08:36:28;1000.7;;;6.4;68.6
45113;BME280;30873;53.908;27.576;2023-01-31T08:41:49;1000.8;;;6.4;68.9
45113;BME280;30873;53.908;27.576;2023-01-31T08:46:28;1000.9;;;6.5;68.6
45113;BME280;30873;53.908;27.576;2023-01-31T08:51:05;1000.9;;;6.5;68.9
45113;BME280;30873;53.908;27.576;2023-01-31T08:56:31;1000.9;;;7.2;66.9
45113;BME280;30873;53.908;27.576;2023-01-31T09:01:06;1001.1;;;7.1;66.7
45113;BME280;30873;53.908;27.576;2023-01-31T09:06:06;1001.2;;;6.6;67.3
45113;BME280;30873;53.908;27.576;2023-01-31T09:11:29;1001.2;;;6.3;68.2
45113;BME280;30873;53.908;27.576;2023-01-31T09:16:29;1001.3;;;6.3;68.4
45113;BME280;30873;53.908;27.576;2023-01-31T09:21:53;1001.4;;;6.3;68.3
45113;BME280;30873;53.908;27.576;2023-01-31T09:26:05;1001.4;;;6.3;68.3
45113;BME280;30873;53.908;27.576;2023-01-31T09:31:51;1001.4;;;6.3;68.4
45113;BME280;30873;53.908;27.576;2023-01-31T09:36:43;1001.4;;;6.3;68.3
45113;BME280;30873;53.908;27.576;2023-01-31T09:41:40;1001.4;;;6.2;68.3
45113;BME280;30873;53.908;27.576;2023-01-31T09:46:20;1001.5;;;6.5;69
45113;BME280;30873;53.908;27.576;2023-01-31T09:51:37;1001.6;;;7.2;67.1
45113;BME280;30873;53.908;27.576;2023-01-31T09:56:11;1001.6;;;7.7;66
45113;BME280;30873;53.908;27.576;2023-01-31T10:01:33;1001.7;;;8;64
45113;BME280;30873;53.908;27.576;2023-01-31T10:06:53;1001.7;;;7.2;64.2
45113;BME280;30873;53.908;27.576;2023-01-31T10:11:40;1001.7;;;6.9;65.5
45113;BME280;30873;53.908;27.576;2023-01-31T10:16:38;1001.7;;;6.7;65.9
45113;BME280;30873;53.908;27.576;2023-01-31T10:21:20;1001.7;;;6.6;66.4
45113;BME280;30873;53.908;27.576;2023-01-31T10:26:30;1001.7;;;6.6;66.9
45113;BME280;30873;53.908;27.576;2023-01-31T10:31:51;1001.8;;;6.2;67.6
45113;BME280;30873;53.908;27.576;2023-01-31T10:36:39;1001.8;;;5.9;69
45113;BME280;30873;53.908;27.576;2023-01-31T10:41:16;1001.9;;;6.1;69.3
45113;BME280;30873;53.908;27.576;2023-01-31T10:46:50;1001.9;;;6.1;68.9
45113;BME280;30873;53.908;27.576;2023-01-31T10:51:20;1002;;;5.9;68.9
45113;BME280;30873;53.908;27.576;2023-01-31T10:56:31;1002;;;5.9;69.2
45113;BME280;30873;53.908;27.576;2023-01-31T11:01:49;1002;;;5.9;69.1
45113;BME280;30873;53.908;27.576;2023-01-31T11:06:05;1001.9;;;6;68.2
45113;BME280;30873;53.908;27.576;2023-01-31T11:11:51;1001.9;;;6;67.6
45113;BME280;30873;53.908;27.576;2023-01-31T11:16:32;1001.9;;;6.1;67.1
45113;BME280;30873;53.908;27.576;2023-01-31T11:21:53;1002;;;6.4;66.6
45113;BME280;30873;53.908;27.576;2023-01-31T11:26:05;1002;;;6.5;65.5
45113;BME280;30873;53.908;27.576;2023-01-31T11:31:39;1002;;;6.4;65.6
45113;BME280;30873;53.908;27.576;2023-01-31T11:36:31;1002.1;;;6.4;65.5
45113;BME280;30873;53.908;27.576;2023-01-31T11:41:40;1002.1;;;6.3;65.7
45113;BME280;30873;53.908;27.576;2023-01-31T11:46:19;1002.1;;;6.2;65.6
45113;BME280;30873;53.908;27.576;2023-01-31T11:51:53;1002.1;;;6.1;65.9
45113;BME280;30873;53.908;27.576;2023-01-31T11:56:35;1002.1;;;6;66.1
45113;BME280;30873;53.908;27.576;2023-01-31T12:01:42;1002.1;;;5.9;66.5
45113;BME280;30873;53.908;27.576;2023-01-31T12:06:55;1002.2;;;6.1;66.4
45113;BME280;30873;53.908;27.576;2023-01-31T12:11:28;1002.3;;;6;66.8
45113;BME280;30873;53.908;27.576;2023-01-31T12:16:39;1002.4;;;5.9;67.2
45113;BME280;30873;53.908;27.576;2023-01-31T12:21:40;1002.4;;;5.8;67.4
45113;BME280;30873;53.908;27.576;2023-01-31T12:26:44;1002.4;;;6;67.3
45113;BME280;30873;53.908;27.576;2023-01-31T12:31:20;1002.4;;;6.3;66.8
45113;BME280;30873;53.908;27.576;2023-01-31T12:36:38;1002.4;;;6.3;65.9
45113;BME280;30873;53.908;27.576;2023-01-31T12:41:18;1002.5;;;6.2;65.4
45113;BME280;30873;53.908;27.576;2023-01-31T12:46:44;1002.6;;;6.1;65.4
45113;BME280;30873;53.908;27.576;2023-01-31T12:51:38;1002.7;;;6;65.5
45113;BME280;30873;53.908;27.576;2023-01-31T12:56:51;1002.7;;;5.9;65.5
45113;BME280;30873;53.908;27.576;2023-01-31T13:01:54;1002.8;;;5.9;65.6
45113;BME280;30873;53.908;27.576;2023-01-31T13:06:05;1002.8;;;5.9;65.2
45113;BME280;30873;53.908;27.576;2023-01-31T13:11:54;1002.9;;;5.9;64.8
45113;BME280;30873;53.908;27.576;2023-01-31T13:16:09;1002.9;;;5.9;65.1
45113;BME280;30873;53.908;27.576;2023-01-31T13:21:42;1002.9;;;5.9;64.9
45113;BME280;30873;53.908;27.576;2023-01-31T13:26:06;1002.9;;;5.8;64.7
45113;BME280;30873;53.908;27.576;2023-01-31T13:31:53;1002.9;;;5.7;64.7
45113;BME280;30873;53.908;27.576;2023-01-31T13:36:17;1003;;;5.7;64.9
45113;BME280;30873;53.908;27.576;2023-01-31T13:41:51;1003;;;5.7;65
45113;BME280;30873;53.908;27.576;2023-01-31T13:46:06;1002.9;;;5.8;64.8
45113;BME280;30873;53.908;27.576;2023-01-31T13:51:51;1003;;;5.6;64.9
45113;BME280;30873;53.908;27.576;2023-01-31T13:56:28;1003.1;;;5.4;65.5
45113;BME280;30873;53.908;27.576;2023-01-31T14:01:16;1003.1;;;5.3;65.9
45113;BME280;30873;53.908;27.576;2023-01-31T14:06:56;1003.1;;;5.3;66.4
45113;BME280;30873;53.908;27.576;2023-01-31T14:11:31;1003.1;;;5.3;66.3
45113;BME280;30873;53.908;27.576;2023-01-31T14:16:41;1003.1;;;5.3;66.3
45113;BME280;30873;53.908;27.576;2023-01-31T14:21:53;1003.2;;;5.1;66.6
45113;BME280;30873;53.908;27.576;2023-01-31T14:26:51;1003.3;;;5.1;66.7
45113;BME280;30873;53.908;27.576;2023-01-31T14:31:27;1003.3;;;5.1;66.9
45113;BME280;30873;53.908;27.576;2023-01-31T14:36:54;1003.4;;;5.1;66.6
45113;BME280;30873;53.908;27.576;2023-01-31T14:41:27;1003.4;;;4.9;66.7
45113;BME280;30873;53.908;27.576;2023-01-31T14:46:58;1003.5;;;4.9;67.1
45113;BME280;30873;53.908;27.576;2023-01-31T14:51:29;1003.5;;;4.8;67.2
45113;BME280;30873;53.908;27.576;2023-01-31T14:56:09;1003.5;;;4.8;67.3
45113;BME280;30873;53.908;27.576;2023-01-31T15:01:30;1003.6;;;4.8;67.2
45113;BME280;30873;53.908;27.576;2023-01-31T15:06:06;1003.7;;;4.8;67.4
45113;BME280;30873;53.908;27.576;2023-01-31T15:11:40;1003.8;;;4.7;67.5
45113;BME280;30873;53.908;27.576;2023-01-31T15:16:54;1003.8;;;4.7;67.8
45113;BME280;30873;53.908;27.576;2023-01-31T15:21:28;1003.9;;;4.7;68
45113;BME280;30873;53.908;27.576;2023-01-31T15:26:39;1003.9;;;4.7;68
45113;BME280;30873;53.908;27.576;2023-01-31T15:31:52;1004;;;4.7;68
45113;BME280;30873;53.908;27.576;2023-01-31T15:36:28;1004;;;4.7;67.9
45113;BME280;30873;53.908;27.576;2023-01-31T15:41:18;1004.1;;;4.7;67.9
45113;BME280;30873;53.908;27.576;2023-01-31T15:46:29;1004.2;;;4.6;67.6
45113;BME280;30873;53.908;27.576;2023-01-31T15:51:29;1004.2;;;4.4;67.2
45113;BME280;30873;53.908;27.576;2023-01-31T15:56:29;1004.2;;;4.5;67.5
45113;BME280;30873;53.908;27.576;2023-01-31T16:01:05;1004.2;;;4.5;67.4
45113;BME280;30873;53.908;27.576;2023-01-31T16:06:30;1004.3;;;4.4;67.2
45113;BME280;30873;53.908;27.576;2023-01-31T16:11:55;1004.3;;;4.4;67.5
45113;BME280;30873;53.908;27.576;2023-01-31T16:16:29;1004.4;;;4.4;67.5
45113;BME280;30873;53.908;27.576;2023-01-31T16:21:55;1004.4;;;4.4;67.4
45113;BME280;30873;53.908;27.576;2023-01-31T16:26:54;1004.4;;;4.3;67.5
45113;BME280;30873;53.908;27.576;2023-01-31T16:31:43;1004.4;;;4.3;67.3
45113;BME280;30873;53.908;27.576;2023-01-31T16:36:06;1004.5;;;4.3;67.3
45113;BME280;30873;53.908;27.576;2023-01-31T16:41:55;1004.4;;;4.3;67.1
45113;BME280;30873;53.908;27.576;2023-01-31T16:46:18;1004.5;;;4.4;66.9
45113;BME280;30873;53.908;27.576;2023-01-31T16:51:38;1004.5;;;4.4;66.6
45113;BME280;30873;53.908;27.576;2023-01-31T16:57:19;1004.5;;;4.4;66.7
45113;BME280;30873;53.908;27.576;2023-01-31T17:01:53;1004.5;;;4.5;66.6
45113;BME280;30873;53.908;27.576;2023-01-31T17:06:41;1004.5;;;4.5;66.6
45113;BME280;30873;53.908;27.576;2023-01-31T17:11:05;1004.5;;;4.6;66.7
45113;BME280;30873;53.908;27.576;2023-01-31T17:16:53;1004.6;;;4.6;66.7
45113;BME280;30873;53.908;27.576;2023-01-31T17:21:15;1004.6;;;4.6;66.8
45113;BME280;30873;53.908;27.576;2023-01-31T17:26:39;1004.6;;;4.6;67.1
45113;BME280;30873;53.908;27.576;2023-01-31T17:31:17;1004.7;;;4.6;67.1
45113;BME280;30873;53.908;27.576;2023-01-31T17:36:41;1004.7;;;4.6;67.3
45113;BME280;30873;53.908;27.576;2023-01-31T17:41:07;1004.7;;;4.6;67.4
45113;BME280;30873;53.908;27.576;2023-01-31T17:46:53;1004.7;;;4.5;67.6
45113;BME280;30873;53.908;27.576;2023-01-31T17:51:41;1004.7;;;4.6;67.6
45113;BME280;30873;53.908;27.576;2023-01-31T17:56:39;1004.8;;;4.5;67.7
45113;BME280;30873;53.908;27.576;2023-01-31T18:01:55;1004.8;;;4.5;67.8
45113;BME280;30873;53.908;27.576;2023-01-31T18:06:29;1004.8;;;4.5;67.9
45113;BME280;30873;53.908;27.576;2023-01-31T18:11:43;1004.8;;;4.6;67.7
45113;BME280;30873;53.908;27.576;2023-01-31T18:16:27;1004.7;;;4.6;67.7
45113;BME280;30873;53.908;27.576;2023-01-31T18:21:41;1004.7;;;4.6;67.5
45113;BME280;30873;53.908;27.576;2023-01-31T18:26:06;1004.7;;;4.5;67.4
45113;BME280;30873;53.908;27.576;2023-01-31T18:31:41;1004.8;;;4.5;67.4
45113;BME280;30873;53.908;27.576;2023-01-31T18:36:29;1004.8;;;4.6;67.4
45113;BME280;30873;53.908;27.576;2023-01-31T18:41:53;1004.8;;;4.6;67.5
45113;BME280;30873;53.908;27.576;2023-01-31T18:46:41;1004.8;;;4.6;67
45113;BME280;30873;53.908;27.576;2023-01-31T18:51:39;1004.8;;;4.4;67
45113;BME280;30873;53.908;27.576;2023-01-31T18:56:55;1004.7;;;4.4;67.2
45113;BME280;30873;53.908;27.576;2023-01-31T19:01:17;1004.7;;;4.4;67.1
45113;BME280;30873;53.908;27.576;2023-01-31T19:06:43;1004.7;;;4.4;67
45113;BME280;30873;53.908;27.576;2023-01-31T19:11:19;1004.6;;;4.4;67
45113;BME280;30873;53.908;27.576;2023-01-31T19:16:18;1004.6;;;4.4;66.9
45113;BME280;30873;53.908;27.576;2023-01-31T19:21:17;1004.6;;;4.4;66.8
45113;BME280;30873;53.908;27.576;2023-01-31T19:26:39;1004.7;;;4.3;66.7
45113;BME280;30873;53.908;27.576;2023-01-31T19:31:16;1004.7;;;4.4;66.5
45113;BME280;30873;53.908;27.576;2023-01-31T19:36:43;1004.6;;;4.4;66.2
45113;BME280;30873;53.908;27.576;2023-01-31T19:41:39;1004.6;;;4.4;65.8
45113;BME280;30873;53.908;27.576;2023-01-31T19:46:53;1004.6;;;4.3;65.3
45113;BME280;30873;53.908;27.576;2023-01-31T19:51:55;1004.6;;;4.3;64.7
45113;BME280;30873;53.908;27.576;2023-01-31T19:56:17;1004.7;;;4.3;64.3
45113;BME280;30873;53.908;27.576;2023-01-31T20:01:55;1004.7;;;4.4;63.9
45113;BME280;30873;53.908;27.576;2023-01-31T20:06:30;1004.7;;;4.4;63.5
45113;BME280;30873;53.908;27.576;2023-01-31T20:11:41;1004.6;;;4.4;63.4
45113;BME280;30873;53.908;27.576;2023-01-31T20:16:06;1004.6;;;4.5;63.1
45113;BME280;30873;53.908;27.576;2023-01-31T20:21:53;1004.6;;;4.5;63
45113;BME280;30873;53.908;27.576;2023-01-31T20:26:05;1004.6;;;4.5;63
45113;BME280;30873;53.908;27.576;2023-01-31T20:31:55;1004.5;;;4.5;62.8
45113;BME280;30873;53.908;27.576;2023-01-31T20:36:31;1004.5;;;4.5;63
45113;BME280;30873;53.908;27.576;2023-01-31T20:41:57;1004.5;;;4.5;63.1
45113;BME280;30873;53.908;27.576;2023-01-31T20:46:33;1004.4;;;4.4;63.4
45113;BME280;30873;53.908;27.576;2023-01-31T20:51:05;1004.4;;;4.4;63.7
45113;BME280;30873;53.908;27.576;2023-01-31T20:56:17;1004.4;;;4.5;63.7
45113;BME280;30873;53.908;27.576;2023-01-31T21:01:05;1004.3;;;4.5;63.8
45113;BME280;30873;53.908;27.576;2023-01-31T21:06:41;1004.3;;;4.5;63.9
45113;BME280;30873;53.908;27.576;2023-01-31T21:11:55;1004.2;;;4.5;64.2
45113;BME280;30873;53.908;27.576;2023-01-31T21:16:06;1004.2;;;4.5;64.3
45113;BME280;30873;53.908;27.576;2023-01-31T21:21:29;1004.3;;;4.4;64.7
45113;BME280;30873;53.908;27.576;2023-01-31T21:26:53;1004.2;;;4.4;65
45113;BME280;30873;53.908;27.576;2023-01-31T21:31:06;1004.2;;;4.4;64.8
45113;BME280;30873;53.908;27.576;2023-01-31T21:36:05;1004.1;;;4.3;65.1
45113;BME280;30873;53.908;27.576;2023-01-31T21:41:19;1004.1;;;4.3;65.2
45113;BME280;30873;53.908;27.576;2023-01-31T21:46:31;1004;;;4.3;65.3
45113;BME280;30873;53.908;27.576;2023-01-31T21:51:06;1004;;;4.2;65.2
45113;BME280;30873;53.908;27.576;2023-01-31T21:56:31;1003.9;;;4.1;65.6
45113;BME280;30873;53.908;27.576;2023-01-31T22:01:30;1003.9;;;4.1;65.9
45113;BME280;30873;53.908;27.576;2023-01-31T22:06:53;1003.9;;;4;65.9
45113;BME280;30873;53.908;27.576;2023-01-31T22:11:29;1003.8;;;4;65.9
45113;BME280;30873;53.908;27.576;2023-01-31T22:16:55;1003.8;;;4;66.1
45113;BME280;30873;53.908;27.576;2023-01-31T22:21:55;1003.8;;;4;66.1
45113;BME280;30873;53.908;27.576;2023-01-31T22:26:28;1003.7;;;4.1;66
45113;BME280;30873;53.908;27.576;2023-01-31T22:31:05;1003.7;;;4.2;65.8
45113;BME280;30873;53.908;27.576;2023-01-31T22:36:29;1003.6;;;4.2;65.9
45113;BME280;30873;53.908;27.576;2023-01-31T22:41:15;1003.6;;;4.1;65.9
45113;BME280;30873;53.908;27.576;2023-01-31T22:46:05;1003.5;;;4.2;66.1
45113;BME280;30873;53.908;27.576;2023-01-31T22:51:06;1003.5;;;4.2;66.1
45113;BME280;30873;53.908;27.576;2023-01-31T22:56:30;1003.4;;;4.2;66
45113;BME280;30873;53.908;27.576;2023-01-31T23:01:53;1003.4;;;4.1;66.1
45113;BME280;30873;53.908;27.576;2023-01-31T23:06:29;1003.4;;;4.2;66.4
45113;BME280;30873;53.908;27.576;2023-01-31T23:11:55;1003.3;;;4.2;66.3
45113;BME280;30873;53.908;27.576;2023-01-31T23:16:51;1003.3;;;4.2;66.5
45113;BME280;30873;53.908;27.576;2023-01-31T23:21:41;1003.3;;;4.2;66.5
45113;BME280;30873;53.908;27.576;2023-01-31T23:26:05;1003.2;;;4.2;66.7
45113;BME280;30873;53.908;27.576;2023-01-31T23:31:35;1003.1;;;4.1;66.8
45113;BME280;30873;53.908;27.576;2023-01-31T23:36:17;1003.1;;;4.1;67
45113;BME280;30873;53.908;27.576;2023-01-31T23:41:29;1003.1;;;4.1;67
45113;BME280;30873;53.908;27.576;2023-01-31T23:46:53;1003.1;;;4.1;67
45113;BME280;30873;53.908;27.576;2023-01-31T23:51:29;1003.1;;;4.1;67.2
45113;BME280;30873;53.908;27.576;2023-01-31T23:56:41;1003.1;;;4.1;67.3
